Home   Weather   USA   Savannah   Past weeks
Flag for USA

Past Weather in Savannah, Georgia, USA — Yesterday and Last 2 Weeks

Currently: 65 °F. Low clouds. (Weather station: Hunter U. S. Army Airfield, USA). See more current weather

Past Weather in Savannah — Graph

°F

Savannah Temperature Yesterday

Maximum temperature yesterday: 66 °F (at 4:55 pm)
Minimum temperature yesterday: 53 °F (at 5:55 am)
Average temperature yesterday: 61 °F

High & Low Weather Summary for the Past Weeks

 TemperatureHumidityPressure
High82 °F (Feb 28, 2:55 pm)100% (Mar 1, 11:42 pm)30.40 "Hg (Mar 1, 11:42 pm)
Low35 °F (Feb 20, 5:55 am)17% (Feb 29, 9:55 am)29.56 "Hg (Feb 23, 3:55 pm)
Average59 °F66%30.09 "Hg
* Reported Feb 19 4:55 pm — Mar 3 12:10 pm, Savannah. Weather by CustomWeather, © 2024

Note: Actual official high and low records may vary slightly from our data, if they occured in-between our weather recording intervals... More about our weather records

Savannah Weather History for the Previous 24 Hours

Scroll right to see more
 ConditionsComfort  
Time TempWeatherWind HumidityBarometerVisibility
12:10 pm
Sun, Mar 3
64 °FLow clouds.7 mph88%30.17 "Hg10 mi
11:55 am65 °FLow clouds.8 mph87%30.17 "Hg10 mi
10:55 am66 °FLow clouds.8 mph87%30.18 "Hg10 mi
9:55 am66 °FLow clouds.5 mph90%30.18 "Hg10 mi
9:25 am63 °FLow clouds.5 mph94%30.17 "Hg10 mi
8:55 am63 °FMostly cloudy.No wind93%30.15 "Hg10 mi
7:55 am63 °FLow clouds.5 mph95%30.13 "Hg8 mi
7:30 am63 °FFog.7 mph94%30.13 "Hg1 mi
7:20 am63 °FFog.5 mph94%30.12 "Hg1 mi
6:55 am62 °FFog.3 mph96%30.12 "Hg6 mi
5:55 am63 °FFog.3 mph96%30.12 "Hg1 mi
4:55 am64 °FFog.No wind96%30.10 "Hg1 mi
3:55 am63 °FFog.No wind96%30.10 "Hg1 mi
2:55 am63 °FFog.No wind96%30.10 "Hg1 mi
1:55 am63 °FFog.3 mph95%30.11 "Hg1 mi
12:55 am63 °FFog.5 mph95%30.12 "Hg5 mi
12:35 am64 °FFog.5 mph94%30.12 "Hg1 mi
12:20 am63 °FFog.5 mph100%30.12 "Hg1 mi
11:55 pm
Sat, Mar 2
63 °FFog.No wind95%30.10 "Hg2 mi
10:55 pm63 °FMostly cloudy.7 mph95%30.10 "Hg7 mi
10:31 pm64 °FLight rain. Passing clouds.No wind94%30.11 "Hg8 mi
10:16 pm64 °FDrizzle. Overcast.5 mph94%30.11 "Hg8 mi
9:17 pm64 °FThundershowers. Low clouds.No wind94%30.14 "Hg8 mi
8:55 pm64 °FLight rain. Low clouds.3 mph94%30.14 "Hg10 mi
8:25 pm64 °FMostly cloudy.No wind94%30.13 "Hg10 mi
7:55 pm64 °FPartly cloudy.No wind91%30.12 "Hg10 mi
7:25 pm66 °FLow clouds.No wind88%30.12 "Hg10 mi
6:55 pm66 °FMostly cloudy.No wind90%30.12 "Hg10 mi
5:55 pm66 °FLow clouds.No wind87%30.10 "Hg10 mi
4:55 pm66 °FLow clouds.3 mph86%30.10 "Hg10 mi
4:25 pm66 °FLow clouds.3 mph88%30.10 "Hg10 mi
3:55 pm66 °FLow clouds.3 mph87%30.10 "Hg10 mi
3:14 pm64 °FLow clouds.No wind94%30.11 "Hg10 mi
2:55 pm64 °FLow clouds.3 mph91%30.11 "Hg10 mi
1:55 pm64 °FLow clouds.No wind91%30.12 "Hg10 mi
1:31 pm64 °FLight rain. Low clouds.No wind88%30.13 "Hg10 mi
Weather by CustomWeather, © 2024

See weather overview